Time;durP1;ratioP1;P1;durP2;ratioP2;P2;SDS_P1;SDS_P2;PMS_P1;PMS_P2;Temp;Humidity;BMP_temperature;BMP_pressure;BME280_temperature;BME280_humidity;BME280_pressure;Samples;Min_cycle;Max_cycle;Signal;HPM_P1;HPM_P2
2022/12/09 00:01:17;;;;;;;32.55;18.65;;;2.10;99.90;;;;;;5065856;28;20166;-76
2022/12/09 00:03:43;;;;;;;33.53;18.58;;;2.10;99.90;;;;;;5055448;28;20178;-73
2022/12/09 00:06:20;;;;;;;35.03;19.25;;;2.10;99.90;;;;;;5058119;28;20182;-79
2022/12/09 00:08:47;;;;;;;32.60;18.52;;;2.10;99.90;;;;;;5063157;28;20281;-73
2022/12/09 00:11:12;;;;;;;37.75;19.20;;;2.10;99.90;;;;;;5069805;28;20587;-75
2022/12/09 00:13:39;;;;;;;34.22;18.70;;;2.00;99.90;;;;;;5068360;28;20179;-73
2022/12/09 00:16:14;;;;;;;32.30;18.23;;;2.10;99.90;;;;;;5077527;28;21802;-73
2022/12/09 00:18:41;;;;;;;31.67;18.05;;;2.00;99.90;;;;;;5053896;28;20272;-80
2022/12/09 00:21:27;;;;;;;34.25;18.83;;;2.00;99.90;;;;;;5061362;28;20355;-74
2022/12/09 00:23:56;;;;;;;34.67;18.50;;;2.00;99.90;;;;;;5068257;28;20196;-74
2022/12/09 00:26:23;;;;;;;35.72;18.48;;;2.00;99.90;;;;;;5064453;28;20183;-76
2022/12/09 00:28:50;;;;;;;34.60;18.10;;;2.00;99.90;;;;;;5055636;28;20187;-81
2022/12/09 00:31:23;;;;;;;31.52;18.90;;;1.90;99.90;;;;;;5061557;28;20190;-75
2022/12/09 00:33:49;;;;;;;32.40;17.85;;;1.90;99.90;;;;;;5060617;28;20177;-74
2022/12/09 00:36:20;;;;;;;30.95;17.05;;;1.90;99.90;;;;;;5077244;28;20274;-74
2022/12/09 00:38:48;;;;;;;30.67;16.38;;;1.90;99.90;;;;;;5069918;28;20666;-76
2022/12/09 00:41:14;;;;;;;28.42;17.05;;;1.90;99.90;;;;;;5059541;28;20623;-74
2022/12/09 00:43:41;;;;;;;35.92;17.80;;;2.00;99.90;;;;;;5062673;28;20261;-75
2022/12/09 00:46:07;;;;;;;29.90;16.55;;;2.00;99.90;;;;;;5056116;28;20187;-75
2022/12/09 00:48:36;;;;;;;29.38;16.17;;;2.00;99.90;;;;;;5060953;28;20178;-76
2022/12/09 00:51:02;;;;;;;27.42;16.23;;;2.10;99.90;;;;;;5067966;28;20540;-78
2022/12/09 00:53:28;;;;;;;28.70;15.43;;;2.10;99.90;;;;;;5059707;28;20218;-75
2022/12/09 00:55:53;;;;;;;27.13;15.63;;;2.00;99.90;;;;;;5069859;28;20672;-75
2022/12/09 00:58:19;;;;;;;32.15;16.15;;;2.10;99.90;;;;;;5063776;28;20194;-75
2022/12/09 01:00:45;;;;;;;26.80;15.77;;;2.10;99.90;;;;;;5060558;28;20200;-76
2022/12/09 01:03:13;;;;;;;28.55;15.52;;;2.00;99.90;;;;;;5065268;28;20175;-74
2022/12/09 01:05:39;;;;;;;32.63;16.77;;;2.00;99.90;;;;;;5054317;28;20237;-77
2022/12/09 01:08:05;;;;;;;33.67;15.70;;;2.00;99.90;;;;;;5064885;28;20257;-74
2022/12/09 01:10:33;;;;;;;26.70;15.25;;;2.00;99.90;;;;;;5054388;28;20531;-75
2022/12/09 01:13:01;;;;;;;27.02;15.52;;;1.90;99.90;;;;;;5054069;28;20202;-74
2022/12/09 01:15:27;;;;;;;26.50;14.98;;;1.90;99.90;;;;;;5069203;28;20312;-80
2022/12/09 01:17:53;;;;;;;33.17;16.20;;;1.90;99.90;;;;;;5065401;28;20663;-79
2022/12/09 01:20:18;;;;;;;28.40;15.05;;;1.90;99.90;;;;;;5054754;28;20233;-76
2022/12/09 01:22:45;;;;;;;30.52;15.20;;;1.90;99.90;;;;;;5065292;28;20191;-78
2022/12/09 01:25:11;;;;;;;28.20;14.70;;;1.90;99.90;;;;;;5056258;28;20201;-80
2022/12/09 01:27:37;;;;;;;29.83;14.38;;;1.90;99.90;;;;;;5063689;28;20240;-78
2022/12/09 01:30:04;;;;;;;27.00;14.77;;;1.90;99.90;;;;;;5057339;28;20194;-81
2022/12/09 01:32:30;;;;;;;29.05;14.93;;;1.90;99.90;;;;;;5053663;28;20308;-78
2022/12/09 01:34:56;;;;;;;26.17;14.35;;;1.80;99.90;;;;;;5056874;28;20191;-81
2022/12/09 01:37:22;;;;;;;28.63;14.05;;;1.90;99.90;;;;;;5082340;28;20195;-75
2022/12/09 01:39:48;;;;;;;28.65;15.43;;;1.80;99.90;;;;;;5064511;28;20199;-76
2022/12/09 01:42:22;;;;;;;25.95;13.63;;;1.90;99.90;;;;;;5061466;28;20619;-75
2022/12/09 01:45:29;;;;;;;24.08;13.88;;;1.80;99.90;;;;;;5068218;28;20190;-75
2022/12/09 01:48:12;;;;;;;25.98;13.98;;;1.80;99.90;;;;;;5071557;28;20178;-74
2022/12/09 01:50:49;;;;;;;26.50;13.80;;;1.80;99.90;;;;;;5063435;28;20200;-75
2022/12/09 01:53:18;;;;;;;28.00;14.90;;;1.80;99.90;;;;;;5057629;28;20289;-74
2022/12/09 01:55:45;;;;;;;27.02;14.48;;;1.90;99.90;;;;;;5060860;28;20219;-76
2022/12/09 01:58:12;;;;;;;25.48;13.65;;;1.90;99.90;;;;;;5060514;28;20220;-75
2022/12/09 02:00:38;;;;;;;28.05;13.93;;;1.90;99.90;;;;;;5078500;28;20628;-75
2022/12/09 02:03:05;;;;;;;25.85;13.93;;;1.90;99.90;;;;;;5065140;28;20190;-74
2022/12/09 02:05:33;;;;;;;29.58;14.32;;;1.90;99.90;;;;;;5057792;28;20206;-73
2022/12/09 02:07:59;;;;;;;28.13;15.20;;;1.90;99.90;;;;;;5049493;28;20171;-74
2022/12/09 02:10:26;;;;;;;23.88;14.15;;;1.90;99.90;;;;;;5061127;28;20267;-79
2022/12/09 02:13:25;;;;;;;24.05;12.60;;;1.90;99.90;;;;;;5063709;28;20212;-74
2022/12/09 02:15:57;;;;;;;25.90;13.70;;;1.80;99.90;;;;;;5070530;28;20168;-73
2022/12/09 02:18:34;;;;;;;24.50;13.55;;;1.80;99.90;;;;;;5062286;28;20182;-73
2022/12/09 02:21:08;;;;;;;23.88;13.50;;;1.80;99.90;;;;;;5066476;28;20230;-74
2022/12/09 02:23:49;;;;;;;23.63;13.10;;;1.80;99.90;;;;;;5058289;28;20228;-74
2022/12/09 02:26:42;;;;;;;24.17;13.32;;;1.80;99.90;;;;;;5074313;28;20178;-74
2022/12/09 02:29:35;;;;;;;23.73;12.23;;;1.70;99.90;;;;;;5060890;28;20206;-74
2022/12/09 02:32:16;;;;;;;27.30;12.82;;;1.70;99.90;;;;;;5065530;28;20277;-74
2022/12/09 02:34:52;;;;;;;26.30;12.13;;;1.70;99.90;;;;;;5059096;28;20219;-74
2022/12/09 02:37:32;;;;;;;26.23;12.13;;;1.70;99.90;;;;;;5072166;28;21466;-74
2022/12/09 02:40:06;;;;;;;22.38;12.05;;;1.70;99.90;;;;;;5083416;28;20210;-74
2022/12/09 02:42:37;;;;;;;29.58;12.63;;;1.70;99.90;;;;;;5057873;28;20179;-74
2022/12/09 02:45:06;;;;;;;21.70;12.00;;;1.70;99.90;;;;;;5066896;28;20191;-74
2022/12/09 02:47:40;;;;;;;25.63;13.20;;;1.70;99.90;;;;;;5068288;28;20478;-74
2022/12/09 02:50:11;;;;;;;26.80;13.80;;;1.70;99.90;;;;;;5083262;28;20202;-74
2022/12/09 02:52:39;;;;;;;25.48;13.77;;;1.70;99.90;;;;;;5067596;28;20214;-74
2022/12/09 02:55:08;;;;;;;26.02;11.95;;;1.70;99.90;;;;;;5061455;28;20209;-74
2022/12/09 02:57:35;;;;;;;27.40;12.68;;;1.70;99.90;;;;;;5061842;28;21752;-77
2022/12/09 03:00:04;;;;;;;26.00;13.27;;;1.60;99.90;;;;;;5059138;28;20194;-74
2022/12/09 03:02:34;;;;;;;24.23;13.32;;;1.60;99.90;;;;;;5058810;28;20192;-75
2022/12/09 03:05:20;;;;;;;26.25;12.38;;;1.60;99.90;;;;;;5060650;28;20220;-74
2022/12/09 03:07:51;;;;;;;22.33;11.50;;;1.60;99.90;;;;;;5072144;28;20190;-76
2022/12/09 03:10:26;;;;;;;25.45;12.57;;;1.60;99.90;;;;;;5071602;28;20202;-75
2022/12/09 03:13:00;;;;;;;23.02;12.25;;;1.60;99.90;;;;;;5072258;28;20201;-75
2022/12/09 03:15:30;;;;;;;25.10;11.93;;;1.60;99.90;;;;;;5058091;28;20192;-75
2022/12/09 03:18:00;;;;;;;25.10;12.10;;;1.60;99.90;;;;;;5058843;28;20235;-74
2022/12/09 03:20:28;;;;;;;26.83;13.40;;;1.60;99.90;;;;;;5060441;28;20234;-77
2022/12/09 03:22:59;;;;;;;21.55;12.27;;;1.60;99.90;;;;;;5063662;28;20183;-83
2022/12/09 03:25:38;;;;;;;26.42;13.20;;;1.60;99.90;;;;;;5061110;28;20186;-74
2022/12/09 03:28:34;;;;;;;24.73;13.43;;;1.60;99.90;;;;;;5066645;28;20174;-74
2022/12/09 03:31:03;;;;;;;22.83;12.75;;;1.60;99.90;;;;;;5041486;28;20227;-80
2022/12/09 03:33:30;;;;;;;22.50;13.40;;;1.60;99.90;;;;;;5068413;28;20191;-74
2022/12/09 03:36:01;;;;;;;28.17;14.75;;;1.50;99.90;;;;;;5057150;28;20202;-75
2022/12/09 03:38:31;;;;;;;25.15;13.45;;;1.50;99.90;;;;;;5062508;28;20171;-75
2022/12/09 03:41:03;;;;;;;23.00;13.15;;;1.50;99.90;;;;;;5060634;28;20186;-80
2022/12/09 03:43:35;;;;;;;28.08;13.27;;;1.50;99.90;;;;;;5058660;28;20657;-83
2022/12/09 03:46:01;;;;;;;25.25;13.88;;;1.50;99.90;;;;;;5057984;28;20281;-75
2022/12/09 03:48:27;;;;;;;26.83;13.68;;;1.50;99.90;;;;;;5060274;28;20258;-74
2022/12/09 03:51:13;;;;;;;24.67;13.65;;;1.50;99.90;;;;;;5073314;28;20210;-74
2022/12/09 03:53:50;;;;;;;24.65;12.95;;;1.50;99.90;;;;;;5071237;28;20650;-80
2022/12/09 03:56:22;;;;;;;22.55;13.15;;;1.50;99.90;;;;;;5065249;28;20225;-82
2022/12/09 03:58:52;;;;;;;23.67;12.10;;;1.50;99.90;;;;;;5059054;28;20239;-80
2022/12/09 04:01:19;;;;;;;25.42;14.00;;;1.50;99.90;;;;;;5056927;28;20179;-74
2022/12/09 04:03:48;;;;;;;22.92;12.73;;;1.50;99.90;;;;;;5056124;28;20178;-80
2022/12/09 04:06:14;;;;;;;28.92;13.52;;;1.50;99.90;;;;;;5066555;28;20182;-74
2022/12/09 04:08:40;;;;;;;26.13;13.68;;;1.50;99.90;;;;;;5059212;28;20682;-74
2022/12/09 04:11:07;;;;;;;25.08;13.68;;;1.50;99.90;;;;;;5070550;28;20659;-74
2022/12/09 04:13:32;;;;;;;27.60;14.25;;;1.50;99.90;;;;;;5069042;28;20183;-74
2022/12/09 04:15:58;;;;;;;29.65;15.00;;;1.50;99.90;;;;;;5062894;28;20182;-77
2022/12/09 04:18:24;;;;;;;31.15;15.10;;;1.50;99.90;;;;;;5058696;28;20186;-81
2022/12/09 04:20:50;;;;;;;29.92;15.00;;;1.50;99.90;;;;;;5067284;28;20230;-74
2022/12/09 04:23:15;;;;;;;29.23;14.98;;;1.50;99.90;;;;;;5067913;28;20182;-74
2022/12/09 04:25:41;;;;;;;25.92;14.38;;;1.50;99.90;;;;;;5068737;28;20237;-76
2022/12/09 04:28:07;;;;;;;28.58;14.80;;;1.50;99.90;;;;;;5057737;28;20596;-77
2022/12/09 04:30:33;;;;;;;30.52;15.05;;;1.40;99.90;;;;;;5053704;28;20622;-78
2022/12/09 04:32:59;;;;;;;28.77;15.65;;;1.50;99.90;;;;;;5056227;28;20186;-79
2022/12/09 04:35:25;;;;;;;30.52;14.68;;;1.50;99.90;;;;;;5070502;28;20563;-74
2022/12/09 04:37:51;;;;;;;25.52;14.38;;;1.40;99.90;;;;;;5061139;28;20180;-76
2022/12/09 04:40:18;;;;;;;36.13;15.77;;;1.40;99.90;;;;;;5058224;28;20244;-74
2022/12/09 04:42:44;;;;;;;30.05;15.25;;;1.40;99.90;;;;;;5061865;28;20187;-74
2022/12/09 04:45:10;;;;;;;28.92;14.45;;;1.50;99.90;;;;;;5069409;28;20179;-74
2022/12/09 04:47:36;;;;;;;26.65;14.50;;;1.40;99.90;;;;;;5068161;28;20190;-74
2022/12/09 04:50:03;;;;;;;28.65;15.30;;;1.40;99.90;;;;;;5070457;28;20297;-74
2022/12/09 04:52:29;;;;;;;24.67;13.77;;;1.50;99.90;;;;;;5059024;28;20174;-81
2022/12/09 04:54:54;;;;;;;26.90;14.48;;;1.40;99.90;;;;;;5065412;28;20198;-74
2022/12/09 04:57:20;;;;;;;26.20;14.98;;;1.40;99.90;;;;;;5067442;28;20182;-74
2022/12/09 04:59:46;;;;;;;30.48;15.00;;;1.40;99.90;;;;;;5061750;28;20206;-77
2022/12/09 05:02:11;;;;;;;26.08;14.10;;;1.40;99.90;;;;;;5056505;28;20304;-76
2022/12/09 05:04:37;;;;;;;32.33;14.80;;;1.40;99.90;;;;;;5055054;28;20559;-75
2022/12/09 05:07:03;;;;;;;26.42;14.20;;;1.40;99.90;;;;;;5070686;28;20190;-74
2022/12/09 05:09:29;;;;;;;30.42;14.90;;;1.40;99.90;;;;;;5056928;28;20206;-75
2022/12/09 05:11:56;;;;;;;24.92;14.73;;;1.40;99.90;;;;;;5059998;28;20191;-76
2022/12/09 05:14:22;;;;;;;28.95;15.07;;;1.40;99.90;;;;;;5065008;28;20215;-83
2022/12/09 05:16:48;;;;;;;23.65;13.90;;;1.40;99.90;;;;;;5069104;28;20650;-75
2022/12/09 05:19:13;;;;;;;28.98;15.15;;;1.40;99.90;;;;;;5069616;28;20194;-74
2022/12/09 05:21:39;;;;;;;26.42;14.75;;;1.40;99.90;;;;;;5074136;28;20295;-73
2022/12/09 05:24:05;;;;;;;27.35;14.65;;;1.40;99.90;;;;;;5071239;28;20253;-73
2022/12/09 05:26:31;;;;;;;26.40;14.30;;;1.40;99.90;;;;;;5067025;28;20179;-73
2022/12/09 05:28:56;;;;;;;28.83;15.30;;;1.40;99.90;;;;;;5069648;28;20231;-76
2022/12/09 05:31:23;;;;;;;23.88;13.70;;;1.40;99.90;;;;;;5072471;28;20635;-73
2022/12/09 05:33:49;;;;;;;24.20;14.45;;;1.40;99.90;;;;;;5060508;28;20575;-80
2022/12/09 05:36:18;;;;;;;27.35;14.15;;;1.40;99.90;;;;;;5063466;28;20639;-74
2022/12/09 05:38:46;;;;;;;26.60;13.73;;;1.30;99.90;;;;;;5066067;28;20237;-74
2022/12/09 05:41:12;;;;;;;31.02;14.68;;;1.30;99.90;;;;;;5073749;28;20973;-75
2022/12/09 05:43:38;;;;;;;29.70;14.77;;;1.30;99.90;;;;;;5070472;28;20637;-74
2022/12/09 05:46:05;;;;;;;33.33;15.23;;;1.30;99.90;;;;;;5062506;28;20218;-74
2022/12/09 05:48:31;;;;;;;34.67;16.05;;;1.30;99.90;;;;;;5065123;28;20191;-80
2022/12/09 05:51:05;;;;;;;34.08;16.63;;;1.30;99.90;;;;;;5065131;28;20218;-75
2022/12/09 05:53:31;;;;;;;29.65;15.55;;;1.30;99.90;;;;;;5059257;28;20187;-81
2022/12/09 05:55:56;;;;;;;32.67;15.43;;;1.30;99.90;;;;;;5068376;28;20197;-74
2022/12/09 05:58:22;;;;;;;28.08;14.27;;;1.30;99.90;;;;;;5070734;28;20705;-74
2022/12/09 06:00:48;;;;;;;31.65;14.60;;;1.30;99.90;;;;;;5071964;28;20298;-74
2022/12/09 06:03:14;;;;;;;29.77;14.77;;;1.30;99.90;;;;;;5072746;28;20228;-79
2022/12/09 06:05:40;;;;;;;30.50;15.02;;;1.30;99.90;;;;;;5070224;28;20199;-73
2022/12/09 06:08:06;;;;;;;29.52;15.07;;;1.30;99.90;;;;;;5062544;28;20274;-73
2022/12/09 06:10:31;;;;;;;26.67;14.38;;;1.30;99.90;;;;;;5071016;28;20297;-74
2022/12/09 06:12:57;;;;;;;30.33;15.63;;;1.30;99.90;;;;;;5073161;28;20187;-74
2022/12/09 06:15:23;;;;;;;39.70;18.58;;;1.30;99.90;;;;;;5071123;28;20174;-74
2022/12/09 06:17:49;;;;;;;38.47;17.83;;;1.30;99.90;;;;;;5069625;28;20466;-74
2022/12/09 06:20:17;;;;;;;37.22;16.45;;;1.30;99.90;;;;;;5063460;28;20269;-75
2022/12/09 06:22:43;;;;;;;31.08;15.50;;;1.30;99.90;;;;;;5065496;28;20175;-75
2022/12/09 06:25:09;;;;;;;28.98;16.23;;;1.20;99.90;;;;;;5058656;28;20259;-77
2022/12/09 06:27:35;;;;;;;30.95;14.68;;;1.20;99.90;;;;;;5059160;28;20615;-74
2022/12/09 06:30:01;;;;;;;31.85;16.17;;;1.20;99.90;;;;;;5062249;28;20213;-74
2022/12/09 06:32:28;;;;;;;39.80;17.15;;;1.20;99.90;;;;;;5071838;28;20190;-74
2022/12/09 06:34:54;;;;;;;42.90;19.05;;;1.20;99.90;;;;;;5065255;28;20238;-75
2022/12/09 06:37:20;;;;;;;51.17;20.63;;;1.20;99.90;;;;;;5059584;28;20603;-74
2022/12/09 06:39:46;;;;;;;39.67;18.33;;;1.20;99.90;;;;;;5058225;28;20214;-81
2022/12/09 06:42:11;;;;;;;33.92;16.35;;;1.20;99.90;;;;;;5068364;28;20621;-74
2022/12/09 06:44:38;;;;;;;30.42;15.60;;;1.20;99.90;;;;;;5070686;28;20209;-75
2022/12/09 06:47:05;;;;;;;31.08;15.82;;;1.20;99.90;;;;;;5068368;28;20191;-75
2022/12/09 06:49:31;;;;;;;32.75;15.50;;;1.20;99.90;;;;;;5056835;28;20225;-75
2022/12/09 06:51:57;;;;;;;38.40;17.00;;;1.20;99.90;;;;;;5059683;28;20179;-74
2022/12/09 06:54:23;;;;;;;50.85;18.42;;;1.20;99.90;;;;;;5063344;28;20273;-81
2022/12/09 06:56:48;;;;;;;43.78;19.73;;;1.20;99.90;;;;;;5071698;28;20514;-76
2022/12/09 06:59:14;;;;;;;40.53;18.42;;;1.20;99.90;;;;;;5070108;28;20186;-74
2022/12/09 07:01:40;;;;;;;37.20;17.30;;;1.20;99.90;;;;;;5063384;28;20211;-79
2022/12/09 07:04:06;;;;;;;31.98;15.77;;;1.10;99.90;;;;;;5060540;28;20217;-74
2022/12/09 07:06:35;;;;;;;27.95;14.82;;;1.20;99.90;;;;;;5065954;28;20553;-75
2022/12/09 07:09:04;;;;;;;27.92;14.98;;;1.20;99.90;;;;;;5057579;28;20224;-80
2022/12/09 07:11:30;;;;;;;27.60;14.10;;;1.20;99.90;;;;;;5065700;28;20183;-75
2022/12/09 07:13:56;;;;;;;27.77;15.13;;;1.20;99.90;;;;;;5056210;28;20194;-75
2022/12/09 07:16:22;;;;;;;27.85;14.15;;;1.20;99.90;;;;;;5069509;28;20190;-75
2022/12/09 07:18:47;;;;;;;26.00;14.00;;;1.20;99.90;;;;;;5066417;28;20182;-80
2022/12/09 07:21:16;;;;;;;27.05;14.05;;;1.20;99.90;;;;;;5058192;28;20257;-82
2022/12/09 07:23:43;;;;;;;30.60;14.85;;;1.20;99.90;;;;;;5061054;28;20178;-74
2022/12/09 07:26:09;;;;;;;27.45;14.65;;;1.20;99.90;;;;;;5071810;28;20179;-84
2022/12/09 07:28:38;;;;;;;27.38;14.35;;;1.20;99.90;;;;;;5067520;28;20285;-76
2022/12/09 07:31:05;;;;;;;28.15;14.65;;;1.20;99.90;;;;;;5073776;28;20595;-77
2022/12/09 07:33:30;;;;;;;27.63;14.43;;;1.20;99.90;;;;;;5062346;28;20190;-75
2022/12/09 07:35:57;;;;;;;29.08;15.35;;;1.20;99.90;;;;;;5061842;28;20248;-80
2022/12/09 07:38:25;;;;;;;29.05;15.40;;;1.20;99.90;;;;;;5064472;28;20207;-75
2022/12/09 07:40:51;;;;;;;29.52;16.38;;;1.20;99.90;;;;;;5073608;28;20232;-75
2022/12/09 07:43:17;;;;;;;29.20;16.27;;;1.20;99.90;;;;;;5067462;28;20181;-75
2022/12/09 07:45:43;;;;;;;30.40;16.20;;;1.20;99.90;;;;;;5076540;28;20204;-75
2022/12/09 07:48:10;;;;;;;36.55;16.67;;;1.20;99.90;;;;;;5070853;28;20274;-82
2022/12/09 07:50:36;;;;;;;33.50;16.88;;;1.20;99.90;;;;;;5071578;28;20221;-79
2022/12/09 07:53:01;;;;;;;35.75;17.02;;;1.20;99.90;;;;;;5071018;28;20282;-81
2022/12/09 07:55:27;;;;;;;34.53;17.08;;;1.20;99.90;;;;;;5069141;28;20178;-75
2022/12/09 07:57:53;;;;;;;39.08;18.42;;;1.20;99.90;;;;;;5068144;28;20170;-76
2022/12/09 08:00:19;;;;;;;43.47;22.95;;;1.20;99.90;;;;;;5061328;28;20341;-74
2022/12/09 08:02:45;;;;;;;41.78;19.77;;;1.30;99.90;;;;;;5061960;28;20197;-76
2022/12/09 08:05:11;;;;;;;39.20;21.27;;;1.30;99.90;;;;;;5069747;28;20327;-73
2022/12/09 08:07:36;;;;;;;40.60;21.63;;;1.30;99.90;;;;;;5078653;28;20201;-75
2022/12/09 08:10:03;;;;;;;42.60;22.27;;;1.30;99.90;;;;;;5071865;28;20574;-75
2022/12/09 08:12:28;;;;;;;40.10;21.85;;;1.40;99.90;;;;;;5071524;28;20186;-74
2022/12/09 08:14:54;;;;;;;47.13;21.55;;;1.40;99.90;;;;;;5067766;28;20194;-81
2022/12/09 08:17:20;;;;;;;51.58;21.23;;;1.40;99.90;;;;;;5062631;28;20189;-77
2022/12/09 08:19:47;;;;;;;39.85;20.15;;;1.50;99.90;;;;;;5065617;28;20285;-76
2022/12/09 08:22:13;;;;;;;41.78;20.77;;;1.50;99.90;;;;;;5054731;28;20230;-77
2022/12/09 08:24:38;;;;;;;40.83;21.58;;;1.50;99.90;;;;;;5064071;28;20290;-76
2022/12/09 08:27:04;;;;;;;44.63;21.75;;;1.50;99.90;;;;;;5071730;28;20186;-76
2022/12/09 08:29:30;;;;;;;42.63;21.92;;;1.60;99.90;;;;;;5072768;28;20211;-77
2022/12/09 08:31:56;;;;;;;46.58;23.20;;;1.60;99.90;;;;;;5072325;28;20193;-78
2022/12/09 08:34:21;;;;;;;45.72;22.58;;;1.60;99.90;;;;;;5059069;28;20187;-75
2022/12/09 08:36:47;;;;;;;46.35;24.15;;;1.70;99.90;;;;;;5062332;28;20187;-76
2022/12/09 08:39:13;;;;;;;50.17;24.92;;;1.80;99.90;;;;;;5062766;28;20190;-75
2022/12/09 08:41:39;;;;;;;47.17;24.52;;;1.90;99.90;;;;;;5071309;28;20173;-76
2022/12/09 08:44:14;;;;;;;43.10;22.20;;;2.00;99.90;;;;;;5059479;28;20182;-74
2022/12/09 08:46:42;;;;;;;46.50;25.08;;;2.20;99.90;;;;;;5064527;28;20174;-80
2022/12/09 08:49:08;;;;;;;47.50;24.17;;;2.30;99.90;;;;;;5064927;28;20182;-76
2022/12/09 08:51:34;;;;;;;56.97;27.02;;;2.40;99.90;;;;;;5046750;28;20273;-78
2022/12/09 08:54:01;;;;;;;49.90;23.75;;;2.40;99.90;;;;;;5059244;28;20265;-75
2022/12/09 08:56:26;;;;;;;51.50;25.38;;;2.60;99.90;;;;;;5062494;28;20189;-75
2022/12/09 08:58:53;;;;;;;49.63;25.08;;;2.80;99.90;;;;;;5075171;28;20183;-76
2022/12/09 09:01:25;;;;;;;46.83;23.77;;;3.00;99.90;;;;;;5075653;28;20170;-76
2022/12/09 09:03:52;;;;;;;45.47;24.92;;;3.30;99.90;;;;;;5075743;28;20178;-76
2022/12/09 09:06:18;;;;;;;44.03;23.63;;;3.60;99.90;;;;;;5076962;28;20177;-75
2022/12/09 09:08:44;;;;;;;42.80;24.02;;;3.70;99.90;;;;;;5074882;28;20186;-75
2022/12/09 09:11:12;;;;;;;44.90;24.88;;;3.80;99.90;;;;;;5067409;28;20202;-75
2022/12/09 09:13:39;;;;;;;46.15;24.73;;;3.80;99.90;;;;;;5075040;28;20209;-75
2022/12/09 09:16:09;;;;;;;41.45;23.60;;;3.70;99.90;;;;;;5076647;28;20182;-74
2022/12/09 09:18:35;;;;;;;47.60;25.25;;;3.70;99.90;;;;;;5075760;28;20309;-75
2022/12/09 09:21:01;;;;;;;49.22;25.55;;;3.60;99.90;;;;;;5064281;28;20316;-82
2022/12/09 09:23:27;;;;;;;48.42;24.15;;;3.50;99.90;;;;;;5090032;28;20182;-76
2022/12/09 09:25:53;;;;;;;47.88;24.50;;;3.40;99.90;;;;;;5075219;28;20329;-75
2022/12/09 09:28:18;;;;;;;44.40;24.90;;;3.40;99.90;;;;;;5074239;28;20759;-84
2022/12/09 09:30:49;;;;;;;46.42;24.70;;;3.50;99.90;;;;;;5065100;28;20277;-76
2022/12/09 09:33:16;;;;;;;54.20;25.75;;;3.50;99.90;;;;;;5075313;28;20167;-76
2022/12/09 09:35:42;;;;;;;46.10;24.17;;;3.70;99.90;;;;;;5058841;28;20190;-78
2022/12/09 09:38:08;;;;;;;48.75;24.52;;;3.80;99.90;;;;;;5069789;28;20183;-77
2022/12/09 09:40:34;;;;;;;42.13;23.75;;;4.00;99.90;;;;;;5074670;28;20186;-78
2022/12/09 09:43:01;;;;;;;41.15;24.13;;;4.10;99.90;;;;;;5075627;28;20200;-74
2022/12/09 09:45:27;;;;;;;37.65;23.05;;;4.10;99.90;;;;;;5073332;28;20197;-74
2022/12/09 09:47:55;;;;;;;41.45;23.70;;;4.10;99.90;;;;;;5057381;28;20194;-79
2022/12/09 09:50:42;;;;;;;43.65;23.50;;;4.10;99.90;;;;;;5060605;28;20214;-81
2022/12/09 09:53:24;;;;;;;43.03;22.63;;;4.10;99.90;;;;;;5070475;28;20186;-81
2022/12/09 09:56:03;;;;;;;40.20;23.63;;;4.00;99.90;;;;;;5069894;28;20656;-77
2022/12/09 09:59:08;;;;;;;40.75;23.33;;;4.00;99.90;;;;;;5055978;28;20765;-83
2022/12/09 10:01:35;;;;;;;50.13;27.00;;;3.90;99.90;;;;;;5052869;28;20237;-74
2022/12/09 10:04:40;;;;;;;41.00;22.63;;;3.90;99.90;;;;;;5066403;28;20229;-77
2022/12/09 10:07:18;;;;;;;44.17;23.55;;;3.90;99.90;;;;;;5051106;28;20237;-74
2022/12/09 10:09:52;;;;;;;42.30;23.58;;;3.80;99.90;;;;;;5067648;28;20197;-75
2022/12/09 10:12:34;;;;;;;41.88;23.55;;;3.70;99.90;;;;;;5075026;28;20187;-74
2022/12/09 10:15:32;;;;;;;40.15;23.38;;;3.60;99.90;;;;;;5069564;28;20225;-74
2022/12/09 10:18:18;;;;;;;44.10;23.58;;;3.60;99.90;;;;;;5047174;28;20187;-74
2022/12/09 10:20:44;;;;;;;44.13;24.15;;;3.50;99.90;;;;;;5072407;28;20226;-74
2022/12/09 10:23:13;;;;;;;43.20;24.20;;;3.50;99.90;;;;;;5070985;28;20229;-75
2022/12/09 10:26:03;;;;;;;47.78;25.92;;;3.60;99.90;;;;;;5058050;28;20193;-74
2022/12/09 10:28:44;;;;;;;41.45;23.35;;;3.60;99.90;;;;;;5054856;28;20179;-74
2022/12/09 10:31:10;;;;;;;42.20;23.27;;;3.80;99.90;;;;;;5054214;28;20549;-74
2022/12/09 10:33:37;;;;;;;43.58;24.10;;;3.80;99.90;;;;;;5056758;28;20321;-74
2022/12/09 10:36:06;;;;;;;42.20;23.33;;;3.90;99.90;;;;;;5062719;28;20195;-74
2022/12/09 10:38:36;;;;;;;40.70;23.13;;;4.00;99.90;;;;;;5055953;28;20178;-80
2022/12/09 10:41:05;;;;;;;43.75;23.98;;;4.00;99.90;;;;;;5073196;28;20187;-73
2022/12/09 10:43:35;;;;;;;37.80;21.20;;;4.00;99.90;;;;;;5071430;28;20243;-74
2022/12/09 10:46:16;;;;;;;39.47;22.27;;;4.00;99.90;;;;;;5065897;28;20668;-78
2022/12/09 10:48:51;;;;;;;39.38;22.65;;;4.00;99.90;;;;;;5055674;28;20166;-74
2022/12/09 10:51:29;;;;;;;41.72;23.20;;;4.00;99.90;;;;;;5074175;28;20186;-78
2022/12/09 10:54:26;;;;;;;37.67;21.90;;;4.00;99.90;;;;;;5072517;28;20178;-77
2022/12/09 10:57:06;;;;;;;37.47;21.88;;;4.00;99.90;;;;;;5067643;28;20266;-80
2022/12/09 10:59:34;;;;;;;34.38;20.67;;;3.90;99.90;;;;;;5061077;28;20179;-74
2022/12/09 11:02:08;;;;;;;39.78;20.70;;;3.90;99.90;;;;;;5071844;28;20266;-76
2022/12/09 11:04:40;;;;;;;38.45;21.70;;;3.70;99.90;;;;;;5048917;28;20264;-74
2022/12/09 11:07:06;;;;;;;37.80;21.48;;;3.60;99.90;;;;;;5076826;28;20178;-81
2022/12/09 11:09:41;;;;;;;41.08;22.52;;;3.50;99.90;;;;;;5053789;28;20240;-73
2022/12/09 11:12:26;;;;;;;43.58;22.92;;;3.50;99.90;;;;;;5055962;28;20182;-74
2022/12/09 11:14:54;;;;;;;43.40;22.80;;;3.40;99.90;;;;;;5058826;28;20571;-74
2022/12/09 11:17:33;;;;;;;39.88;23.15;;;3.40;99.90;;;;;;5053833;28;20179;-77
2022/12/09 11:20:19;;;;;;;39.22;22.23;;;3.30;99.90;;;;;;5065062;28;20185;-76
2022/12/09 11:22:56;;;;;;;37.13;21.05;;;3.20;99.90;;;;;;5073067;28;20302;-74
2022/12/09 11:25:25;;;;;;;39.67;21.15;;;3.20;99.90;;;;;;5058737;28;20544;-78
2022/12/09 11:27:51;;;;;;;38.13;22.13;;;3.20;99.90;;;;;;5070469;28;20236;-75
2022/12/09 11:30:22;;;;;;;37.53;21.38;;;3.10;99.90;;;;;;5072170;28;20210;-74
2022/12/09 11:33:13;;;;;;;38.33;21.05;;;3.10;99.90;;;;;;5071221;28;20166;-80
2022/12/09 11:35:42;;;;;;;39.25;21.83;;;3.10;99.90;;;;;;5044922;28;20186;-74
2022/12/09 11:38:28;;;;;;;40.30;21.98;;;3.00;99.90;;;;;;5069315;28;20248;-78
2022/12/09 11:42:12;;;;;;;38.72;21.60;;;3.00;99.90;;;;;;5073935;28;20212;-74
2022/12/09 11:44:11;;;;;;;43.35;21.08;;;3.00;99.90;;;;;;5070403;28;20638;-73
2022/12/09 11:46:37;;;;;;;42.55;22.30;;;2.90;99.90;;;;;;5073396;28;20167;-75
2022/12/09 11:49:15;;;;;;;42.30;22.65;;;2.90;99.90;;;;;;5065617;28;20186;-75
2022/12/09 11:51:56;;;;;;;37.50;20.95;;;2.80;99.90;;;;;;5058679;28;20174;-75
2022/12/09 11:54:39;;;;;;;38.15;21.73;;;2.90;99.90;;;;;;5053390;28;20187;-75
2022/12/09 11:57:12;;;;;;;41.70;22.73;;;2.90;99.90;;;;;;5053198;28;20164;-75
2022/12/09 11:59:48;;;;;;;41.85;22.08;;;2.80;99.90;;;;;;5062362;28;20186;-75
2022/12/09 12:02:29;;;;;;;40.58;22.15;;;2.80;99.90;;;;;;5071730;28;20257;-74
2022/12/09 12:05:13;;;;;;;41.03;22.67;;;2.80;99.90;;;;;;5071287;28;20178;-74
2022/12/09 12:07:53;;;;;;;41.88;22.73;;;2.80;99.90;;;;;;5093567;28;20254;-75
2022/12/09 12:10:26;;;;;;;44.63;21.27;;;2.80;99.90;;;;;;5065005;28;20198;-75
2022/12/09 12:13:24;;;;;;;41.97;22.48;;;2.80;99.90;;;;;;5060660;28;20218;-75
2022/12/09 12:16:16;;;;;;;45.13;21.55;;;2.70;99.90;;;;;;5052670;28;20266;-75
2022/12/09 12:18:51;;;;;;;40.22;21.35;;;2.70;99.90;;;;;;5056908;28;20171;-74
2022/12/09 12:21:29;;;;;;;40.63;21.55;;;2.60;99.90;;;;;;5055885;28;20218;-74
2022/12/09 12:24:23;;;;;;;40.60;21.10;;;2.60;99.90;;;;;;5055246;28;20257;-76
2022/12/09 12:27:02;;;;;;;42.53;22.35;;;2.50;99.90;;;;;;5069479;28;20573;-74
2022/12/09 12:29:59;;;;;;;44.50;22.13;;;2.50;99.90;;;;;;5051046;28;20650;-75
2022/12/09 12:32:43;;;;;;;42.05;21.90;;;2.50;99.90;;;;;;5052946;28;20221;-74
2022/12/09 12:35:48;;;;;;;40.00;21.50;;;2.40;99.90;;;;;;5066153;28;20175;-74
2022/12/09 12:38:21;;;;;;;43.78;23.10;;;2.40;99.90;;;;;;5071819;28;20189;-74
2022/12/09 12:41:07;;;;;;;46.00;23.10;;;2.40;99.90;;;;;;5067695;28;20182;-74
2022/12/09 12:46:29;;;;;;;43.90;23.00;;;2.40;99.90;;;;;;5071730;28;20265;-74
2022/12/09 12:49:31;;;;;;;43.35;22.90;;;2.40;99.90;;;;;;5071377;28;20173;-73
2022/12/09 12:52:25;;;;;;;44.55;23.65;;;2.40;99.90;;;;;;5063624;28;20201;-80
2022/12/09 12:55:26;;;;;;;44.85;23.35;;;2.30;99.90;;;;;;5057806;28;20194;-75
2022/12/09 12:58:18;;;;;;;39.35;19.73;;;2.30;99.90;;;;;;5059570;28;20696;-73